ESCF/LPI METAR and TAF weather

Enter ICAO airport designator
Station Type Date Time Source
ESCF METAR 2020/10/22 02:50 UTC NOAA

ESCF 220250Z AUTO 16008KT 9999 -SHRA SCT006/// BKN013/// OVC020/// 11/10 Q0991 RESHRA


Station Type Date Time Source
ESCF Decoded METAR 2020/10/22 02:50 UTC NOAA

Linkoping / Malmen, Sweden (ESCF) 58-24N 015-31E 117M
Oct 21, 2020 - 10:50 PM EDT / 2020.10.22 0250 UTC
Wind: from the SSE (160 degrees) at 9 MPH (8 KT):0
Visibility: greater than 7 mile(s):0
Sky conditions: overcast
Weather: light rain showers
Temperature: 51 F (11 C)
Dew Point: 50 F (10 C)
Relative Humidity: 93%
Pressure (altimeter): 29.26 in. Hg (0991 hPa)
ob: ESCF 220250Z AUTO 16008KT 9999 -SHRA SCT006/// BKN013/// OVC020/// 11/10 Q0991 RESHRA
cycle: 3

Station Type Date Time Source
ESCF TAF UTC NOAA

Error!

Example: see airport list